x

Ne Bahamas - 350 Nm Ene Of Nassau, Bahamas (41047) Wave Buoy

11:50am - Wed 20th Aug 2014 All times are UTC.

  • Sig Wave height 2.6ft
  • Swell Direction
  • Peak Period 8s
  • Average Period 5s
  • Wind
    11mph
  • Sea Temp 84°f
  • Air Temp 83°f
  • Sea Pressure 1018.9mb

More Historic Weather Station data

Upgrade to MSW Pro to gain access to the past 30 days of data for over 8000 Wavebouys and Weather Stations around the globe.

Join Pro

Comparision Forecast

View Surf forecast
   
Wed 08/20 11:50am 2.5ft 8s 5s 11
mph
1018.9mb 84f 83f
10:50am 2.5ft 8s 5s 9 13 mph 1018.3mb 84f 83f
9:50am 2.5ft 9s 5s 9 11 mph 1018mb 84f 83f
8:50am 2.5ft 9s 5s 9 11 mph 1017.7mb 84f 83f
7:50am 2.5ft 8s 5s 9 11 mph 1017.4mb 84f 83f
6:50am 2.5ft 7s 5s 9 11 mph 1017.7mb 84f 83f
5:50am 3ft 9s 5s 9
mph
1018mb 85f 83f
4:50am 3ft 7s 5s 7 9 mph 1018.4mb 85f 84f
3:50am 3ft 9s 5s 9 11 mph 1018.4mb 85f 84f
2:50am 3ft 8s 5s 9 11 mph 1018.4mb 85f 84f
1:50am 3ft 9s 6s 11 13 mph 1018mb 85f 84f
12:50am 2.5ft 9s 6s 9 11 mph 1018.1mb 85f 84f
Tue 08/19 11:50pm 2.5ft 8s 5s 7
mph
1017.5mb 85f 84f
10:50pm 2.5ft 8s 5s 2 4 mph 1017.7mb 85f 83f
9:50pm 3ft 8s 6s 2 4 mph 1017.8mb 85f 84f
8:50pm 2.5ft 9s 6s 11 16 mph 1018mb 85f 83f
7:50pm 3ft 6s 6s 7 9 mph 1017.9mb 86f 85f
6:50pm 2.5ft 7s 6s 7
mph
1018.3mb 85f 84f
5:50pm 3ft 8s 6s 9
mph
1018.7mb 85f 84f
4:50pm 3ft 8s 6s 9 11 mph 1019.1mb 85f 84f
3:50pm 2.5ft 7s 6s 4
mph
1019.3mb 85f 83f
2:50pm 3ft 8s 6s 7 9 mph 1019.2mb 85f 83f
1:50pm 3ft 8s 6s 9 11 mph 1018.8mb 85f 83f
12:50pm 3ft 8s 6s 9 11 mph 1017.8mb 84f 83f
11:50am 3ft 8s 6s 7 9 mph 1017.8mb 84f 83f
10:50am 3.5ft 8s 6s 9
mph
1017.5mb 84f 83f
9:50am 3ft 8s 6s 7 9 mph 1016.8mb 85f 83f
8:50am 3.5ft 8s 6s 9 11 mph 1016.4mb 85f 83f
7:50am 3.5ft 7s 6s 9 11 mph 1016.4mb 85f 83f
6:50am 3.5ft 8s 6s 7 9 mph 1016.7mb 85f 83f
5:50am 3.5ft 8s 6s 4 7 mph 1017mb 85f 83f
4:50am 3.5ft 8s 6s 7
mph
1017.3mb 85f 83f
3:50am 3ft 8s 6s 2 4 mph 1017.8mb 85f 83f
2:50am 3.5ft 8s 6s 2 4 mph 1018mb 85f 83f
1:50am 3.5ft 7s 6s 2 4 mph 1017.9mb 85f 83f
12:50am 3.5ft 7s 6s 2
mph
1017.8mb 85f 83f
Mon 08/18 11:50pm 3ft 7s 6s 2 4 mph 1017.5mb 85f 84f
10:50pm 3.5ft 8s 6s 4
mph
1017.2mb 86f 84f
9:50pm 3ft 8s 6s 4 7 mph 1017.3mb 86f 85f
8:50pm 3ft 8s 6s 4 7 mph 1017.4mb 86f 84f
7:50pm 3ft 8s 6s 7 9 mph 1017.6mb 86f 84f
6:50pm 3.5ft 8s 6s 7
mph
1018mb 87f 84f
5:50pm 3.5ft 8s 6s 4 7 mph 1018.6mb 86f 84f
4:50pm 3.5ft 7s 6s 4 7 mph 1018.8mb 85f 83f
3:50pm 3.5ft 8s 6s 7 9 mph 1018.8mb 85f 83f
2:50pm 3ft 8s 6s 7 9 mph 1019.2mb 85f 83f
1:50pm 3ft 7s 6s 9 11 mph 1019.1mb 84f 83f
12:50pm 3ft 7s 6s 7 9 mph 1019.2mb 84f 83f
11:50am 3.5ft 8s 6s 7
mph
1019.2mb 84f 83f
10:50am 3.5ft 7s 6s 7 9 mph 1019.3mb 84f 83f
9:50am 3ft 7s 6s 9 11 mph 1018.7mb 84f 82f
8:50am 3ft 8s 6s 9 11 mph 1018.6mb 84f 82f
7:50am 3ft 7s 6s 7 9 mph 1018.3mb 84f 82f
6:50am 3ft 7s 6s 7 9 mph 1018.5mb 84f 82f
5:50am 2.5ft 8s 6s 4 7 mph 1018.9mb 84f 83f
4:50am 3ft 8s 6s 4 7 mph 1019.3mb 84f 83f
3:50am 3ft 8s 6s 7
mph
1019.8mb 84f 83f
2:50am 3ft 8s 6s 4 7 mph 1019.8mb 84f 83f
1:50am 3ft 8s 5s 7
mph
1020mb 85f 83f
12:50am 3ft 8s 5s 4 7 mph 1019.9mb 85f 83f
Sun 08/17 11:50pm 3ft 8s 5s 7
mph
1019.7mb 85f 83f
10:50pm 3ft 8s 5s 7 9 mph 1019.5mb 85f 84f
9:50pm 3ft 7s 5s 7 9 mph 1019.8mb 85f 84f
8:50pm 3ft 8s 5s 9 11 mph 1020mb 85f 84f
7:50pm 3ft 8s 5s 9
mph
1020.1mb 85f 84f
6:50pm 3ft 8s 5s 9
mph
1020.4mb 85f 84f
5:50pm 3ft 8s 5s 11 13 mph 1020.9mb 85f 84f
4:50pm 3ft 8s 5s 7 9 mph 1021.1mb 84f 84f
3:50pm 3.5ft 7s 5s 7 9 mph 1021.5mb 84f 84f
2:50pm 3ft 7s 5s 9 11 mph 1021.4mb 84f 83f
1:50pm 3.5ft 8s 5s 9 13 mph 1021.1mb 84f 83f
12:50pm 3.5ft 8s 5s 13
mph
1020.8mb 84f 83f
11:50am 3.5ft 8s 5s 13 16 mph 1020.6mb 84f 83f
10:50am 3.5ft 6s 5s 13
mph
1020.2mb 84f 83f
9:50am 3.5ft 6s 5s 9 11 mph 1020mb 84f 83f
8:50am 3.5ft 8s 5s 11 13 mph 1019.4mb 84f 83f
7:50am 3.5ft 8s 5s 11 13 mph 1019.2mb 84f 83f
6:50am 3.5ft 9s 5s 11 13 mph 1019.3mb 84f 83f
5:50am 3.5ft 9s 6s 9 11 mph 1020mb 84f 83f
4:50am 3.5ft 8s 5s 9
mph
1021mb 84f 83f
3:50am 3.5ft 8s 5s 7
mph
1021.9mb 84f 83f
2:50am 3.5ft 8s 5s 4
mph
1022.1mb 84f 83f
1:50am 3ft 8s 5s 7 9 mph 1022.2mb 84f 84f
12:50am 3.5ft 8s 5s 7 9 mph 1022mb 84f 84f
Sat 08/16 11:50pm 3.5ft 8s 5s 9
mph
1021.6mb 84f 84f
10:50pm 3.5ft 8s 5s 9 11 mph 1021mb 84f 84f
9:50pm 3.5ft 8s 5s 11 13 mph 1020.5mb 84f 84f
8:50pm 3.5ft 8s 5s 11 13 mph 1020mb 84f 84f
7:50pm 3.5ft 8s 5s 13 16 mph 1020mb 84f 84f
6:50pm 3ft 9s 5s 11 13 mph 1020mb 84f 84f
5:50pm 3.5ft 8s 5s 13 16 mph 1020.5mb 84f 84f
4:50pm 3ft 8s 5s 13 16 mph 1021mb 84f 84f
3:50pm 3.5ft 9s 5s 13 16 mph 1021.1mb 84f 84f
2:50pm 3.5ft 8s 5s 13 18 mph 1021.3mb 83f 83f
1:50pm 3ft 8s 5s 13 16 mph 1020.7mb 83f 83f